createdAt,value
2022-08-18T00:00:58.282Z,21.10
2022-08-18T00:04:36.326Z,21.10
2022-08-18T00:08:02.570Z,21.10
2022-08-18T00:11:25.249Z,21.00
2022-08-18T00:14:53.738Z,21.00
2022-08-18T00:18:16.667Z,21.00
2022-08-18T00:21:39.095Z,21.00
2022-08-18T00:25:01.366Z,21.00
2022-08-18T00:28:24.044Z,21.00
2022-08-18T00:31:46.947Z,21.00
2022-08-18T00:35:13.914Z,21.20
2022-08-18T00:38:36.472Z,21.10
2022-08-18T00:41:58.531Z,21.10
2022-08-18T00:45:28.350Z,21.00
2022-08-18T00:48:51.259Z,20.90
2022-08-18T00:52:16.904Z,20.70
2022-08-18T00:55:51.333Z,20.60
2022-08-18T00:59:50.669Z,20.50
2022-08-18T01:03:16.166Z,20.30
2022-08-18T01:06:57.765Z,20.20
2022-08-18T01:10:22.655Z,20.10
2022-08-18T01:13:45.721Z,20.10
2022-08-18T01:17:27.046Z,20.10
2022-08-18T01:21:19.930Z,20.10
2022-08-18T01:25:00.471Z,20.10
2022-08-18T01:28:23.851Z,20.10
2022-08-18T01:31:56.671Z,20.10
2022-08-18T01:35:21.900Z,20.10
2022-08-18T01:38:47.248Z,20.10
2022-08-18T01:42:09.749Z,20.10
2022-08-18T01:45:35.751Z,20.10
2022-08-18T01:49:00.898Z,20.10
2022-08-18T01:52:23.192Z,20.10
2022-08-18T01:55:45.757Z,20.10
2022-08-18T01:59:14.306Z,20.10
2022-08-18T02:02:37.774Z,20.20
2022-08-18T02:06:02.703Z,20.30
2022-08-18T02:09:25.437Z,20.40
2022-08-18T02:12:47.955Z,20.50
2022-08-18T02:16:10.346Z,20.60
2022-08-18T02:19:38.903Z,20.60
2022-08-18T02:23:02.914Z,20.90
2022-08-18T02:26:25.665Z,21.10
2022-08-18T02:29:48.031Z,21.20
2022-08-18T02:33:13.191Z,21.40
2022-08-18T02:36:36.067Z,21.50
2022-08-18T02:39:58.575Z,21.60
2022-08-18T02:43:21.023Z,21.60
2022-08-18T02:46:43.717Z,21.60
2022-08-18T02:50:07.830Z,21.40
2022-08-18T02:55:02.267Z,21.10
2022-08-18T02:59:00.504Z,20.90
2022-08-18T03:02:24.113Z,20.60
2022-08-18T03:05:49.686Z,20.10
2022-08-18T03:09:15.586Z,19.90
2022-08-18T03:12:43.013Z,20.00
2022-08-18T03:16:08.410Z,19.70
2022-08-18T03:19:32.136Z,19.80
2022-08-18T03:23:05.483Z,19.80
2022-08-18T03:26:29.168Z,19.80
2022-08-18T03:29:55.704Z,19.80
2022-08-18T03:33:18.517Z,19.40
2022-08-18T03:36:42.528Z,19.30
2022-08-18T03:40:11.287Z,19.20
2022-08-18T03:43:50.938Z,18.90
2022-08-18T03:47:16.328Z,18.90
2022-08-18T03:50:39.793Z,18.90
2022-08-18T03:54:04.627Z,19.10
2022-08-18T03:57:27.454Z,19.20
2022-08-18T04:00:50.371Z,19.20
2022-08-18T04:04:16.976Z,19.20
2022-08-18T04:07:41.369Z,19.20
2022-08-18T04:11:07.213Z,19.20
2022-08-18T04:14:32.325Z,19.10
2022-08-18T04:18:03.988Z,19.10
2022-08-18T04:21:26.630Z,18.90
2022-08-18T04:24:52.528Z,18.70
2022-08-18T04:28:15.800Z,18.60
2022-08-18T04:31:40.470Z,18.60
2022-08-18T04:35:09.008Z,18.60
2022-08-18T04:38:36.758Z,18.50
2022-08-18T04:41:59.595Z,18.50
2022-08-18T04:45:28.964Z,18.50
2022-08-18T04:49:01.409Z,18.60
2022-08-18T04:52:43.463Z,18.70
2022-08-18T04:56:06.085Z,18.80
2022-08-18T04:59:29.470Z,18.90
2022-08-18T05:02:55.581Z,18.90
2022-08-18T05:06:19.964Z,19.00
2022-08-18T05:09:43.570Z,18.90
2022-08-18T05:13:06.950Z,18.90
2022-08-18T05:16:36.629Z,18.70
2022-08-18T05:20:11.570Z,18.60
2022-08-18T05:23:34.670Z,18.60
2022-08-18T05:26:59.245Z,18.60
2022-08-18T05:30:23.290Z,18.80
2022-08-18T05:33:47.416Z,19.10
2022-08-18T05:37:35.621Z,19.40
2022-08-18T05:41:19.451Z,19.80
2022-08-18T05:44:45.723Z,20.40
2022-08-18T05:48:08.536Z,20.60
2022-08-18T05:52:01.495Z,20.70
2022-08-18T05:55:50.603Z,20.60
2022-08-18T05:59:49.649Z,20.50
2022-08-18T06:03:22.887Z,20.10
2022-08-18T06:06:50.756Z,20.00
2022-08-18T06:10:15.219Z,19.80
2022-08-18T06:13:41.455Z,19.80
2022-08-18T06:17:16.011Z,20.00
2022-08-18T06:21:00.857Z,20.20
2022-08-18T06:24:40.755Z,20.40
2022-08-18T06:28:15.317Z,21.10
2022-08-18T06:32:18.700Z,21.50
2022-08-18T06:35:50.005Z,21.40
2022-08-18T06:39:45.907Z,21.20
2022-08-18T06:43:16.007Z,21.00
2022-08-18T06:47:09.980Z,21.10
2022-08-18T06:50:39.600Z,21.30
2022-08-18T06:54:28.892Z,21.10
2022-08-18T06:58:00.866Z,20.80
2022-08-18T07:01:25.599Z,20.50
2022-08-18T07:05:08.312Z,20.30
2022-08-18T07:08:42.724Z,20.10
2022-08-18T07:12:11.682Z,19.90
2022-08-18T07:15:34.970Z,19.90
2022-08-18T07:19:20.643Z,20.00
2022-08-18T07:23:23.770Z,19.90
2022-08-18T07:26:58.557Z,19.90
2022-08-18T07:30:20.524Z,19.60
2022-08-18T07:33:52.077Z,19.70
2022-08-18T07:37:19.374Z,19.60
2022-08-18T07:40:59.359Z,19.50
2022-08-18T07:44:29.667Z,19.70
2022-08-18T07:48:40.053Z,19.50
2022-08-18T07:52:36.077Z,19.50
2022-08-18T07:56:07.773Z,19.60
2022-08-18T07:59:52.036Z,19.70
2022-08-18T08:03:50.727Z,19.60
2022-08-18T08:07:26.009Z,19.70
2022-08-18T08:10:59.792Z,19.80
2022-08-18T08:14:44.679Z,19.80
2022-08-18T08:18:37.268Z,19.60
2022-08-18T08:22:18.505Z,19.70
2022-08-18T08:25:50.495Z,19.80
2022-08-18T08:29:25.041Z,20.10
2022-08-18T08:33:13.112Z,20.40
2022-08-18T08:36:41.917Z,20.50
2022-08-18T08:40:22.802Z,20.90
2022-08-18T08:43:52.780Z,20.80
2022-08-18T08:47:25.999Z,20.60
2022-08-18T08:51:01.710Z,20.60
2022-08-18T08:55:00.781Z,20.80
2022-08-18T08:58:43.103Z,20.90
2022-08-18T09:02:32.152Z,21.10
2022-08-18T09:06:15.919Z,20.70
2022-08-18T09:10:08.355Z,20.80
2022-08-18T09:13:56.090Z,20.90
2022-08-18T09:17:30.032Z,20.60
2022-08-18T09:21:18.884Z,20.60
2022-08-18T09:24:51.917Z,20.50
2022-08-18T09:28:19.684Z,20.40
2022-08-18T09:31:45.070Z,20.30
2022-08-18T09:35:23.129Z,20.20
2022-08-18T09:39:14.260Z,20.10
2022-08-18T09:46:52.777Z,19.70
2022-08-18T09:50:31.719Z,19.70
2022-08-18T09:50:37.043Z,19.90
2022-08-18T09:54:08.637Z,19.60
2022-08-18T09:57:42.001Z,19.60
2022-08-18T10:01:33.466Z,19.40
2022-08-18T10:05:34.051Z,19.40
2022-08-18T10:09:54.477Z,19.40
2022-08-18T10:13:38.773Z,19.20
2022-08-18T10:17:29.518Z,19.30
2022-08-18T10:21:27.574Z,19.30
2022-08-18T10:25:09.139Z,19.40
2022-08-18T10:28:52.471Z,19.30
2022-08-18T10:32:15.751Z,19.10
2022-08-18T10:35:39.396Z,18.80
2022-08-18T10:39:08.571Z,18.60
2022-08-18T10:42:45.036Z,18.70
2022-08-18T10:46:30.614Z,18.60
2022-08-18T10:49:55.957Z,18.70
2022-08-18T10:57:59.616Z,19.00
2022-08-18T11:01:39.350Z,19.00
2022-08-18T11:05:13.710Z,19.10
2022-08-18T11:08:57.457Z,19.30
2022-08-18T11:12:39.072Z,19.50
2022-08-18T11:19:55.924Z,20.00
2022-08-18T11:23:21.107Z,20.20
2022-08-18T11:26:52.550Z,20.30
2022-08-18T11:30:17.859Z,20.50
2022-08-18T11:33:42.495Z,21.30
2022-08-18T11:37:09.272Z,21.80
2022-08-18T11:41:09.524Z,21.50
2022-08-18T11:44:33.778Z,21.20
2022-08-18T11:48:16.362Z,21.70
2022-08-18T11:52:29.383Z,22.00
2022-08-18T12:00:42.536Z,22.80
2022-08-18T12:04:17.783Z,23.20
2022-08-18T12:07:45.363Z,23.60
2022-08-18T12:15:17.553Z,22.70
2022-08-18T12:18:47.181Z,22.50
2022-08-18T12:22:27.618Z,22.20
2022-08-18T12:25:51.956Z,22.40
2022-08-18T12:29:15.055Z,22.80
2022-08-18T12:32:48.905Z,23.20
2022-08-18T12:36:13.535Z,23.50
2022-08-18T12:39:38.739Z,23.00
2022-08-18T12:46:44.050Z,22.60
2022-08-18T12:50:07.693Z,22.50
2022-08-18T12:53:57.775Z,22.50
2022-08-18T12:57:33.477Z,22.40
2022-08-18T13:01:02.684Z,22.50
2022-08-18T13:04:26.743Z,22.50
2022-08-18T13:07:52.933Z,22.70
2022-08-18T13:11:23.510Z,22.70
2022-08-18T13:14:46.564Z,22.40
2022-08-18T13:18:14.454Z,22.10
2022-08-18T13:21:39.034Z,22.20
2022-08-18T13:25:07.098Z,22.50
2022-08-18T13:28:33.622Z,23.00
2022-08-18T13:32:02.297Z,23.30
2022-08-18T13:35:25.548Z,23.60
2022-08-18T13:38:54.945Z,24.10
2022-08-18T13:42:25.105Z,24.40
2022-08-18T13:45:52.997Z,24.40
2022-08-18T13:49:30.324Z,24.70
2022-08-18T13:52:54.177Z,24.60
2022-08-18T13:56:18.060Z,24.10
2022-08-18T13:59:46.619Z,24.20
2022-08-18T14:03:13.016Z,24.70
2022-08-18T14:06:46.734Z,24.60
2022-08-18T14:10:15.704Z,24.20
2022-08-18T14:13:44.257Z,23.90
2022-08-18T14:17:06.472Z,24.10
2022-08-18T14:20:49.055Z,24.50
2022-08-18T14:24:37.757Z,25.20
2022-08-18T14:28:04.143Z,24.90
2022-08-18T14:31:27.530Z,24.60
2022-08-18T14:34:58.553Z,24.40
2022-08-18T14:38:24.169Z,24.70
2022-08-18T14:41:49.649Z,25.10
2022-08-18T14:45:31.182Z,25.20
2022-08-18T14:48:56.609Z,25.20
2022-08-18T14:52:22.948Z,24.80
2022-08-18T14:55:49.469Z,24.80
2022-08-18T14:59:17.035Z,24.70
2022-08-18T15:02:46.310Z,24.80
2022-08-18T15:06:16.875Z,25.20
2022-08-18T15:09:39.809Z,25.00
2022-08-18T15:13:03.700Z,25.00
2022-08-18T15:16:31.595Z,25.20
2022-08-18T15:20:00.364Z,25.30
2022-08-18T15:23:42.083Z,25.20
2022-08-18T15:27:10.481Z,25.00
2022-08-18T15:30:51.130Z,25.00
2022-08-18T15:34:13.773Z,24.90
2022-08-18T15:37:38.557Z,24.80
2022-08-18T15:41:09.440Z,24.60
2022-08-18T15:44:33.103Z,24.50
2022-08-18T15:47:59.705Z,24.50
2022-08-18T15:51:23.520Z,24.30
2022-08-18T15:54:50.347Z,24.40
2022-08-18T15:58:13.874Z,24.40
2022-08-18T16:01:43.441Z,24.50
2022-08-18T16:05:10.189Z,24.50
2022-08-18T16:08:34.969Z,24.50
2022-08-18T16:12:00.237Z,24.50
2022-08-18T16:15:25.694Z,24.40
2022-08-18T16:18:50.021Z,24.60
2022-08-18T16:22:13.478Z,24.60
2022-08-18T16:25:38.799Z,24.60
2022-08-18T16:29:02.801Z,24.50
2022-08-18T16:32:29.066Z,24.40
2022-08-18T16:35:52.257Z,24.20
2022-08-18T16:39:14.475Z,24.10
2022-08-18T16:42:37.121Z,24.10
2022-08-18T16:46:00.205Z,24.10
2022-08-18T16:49:22.694Z,24.00
2022-08-18T16:52:45.327Z,24.00
2022-08-18T16:56:16.072Z,24.10
2022-08-18T16:59:58.780Z,24.10
2022-08-18T17:03:39.397Z,24.10
2022-08-18T17:07:06.720Z,24.20
2022-08-18T17:14:00.651Z,23.90
2022-08-18T17:17:24.020Z,23.80
2022-08-18T17:20:47.524Z,23.70
2022-08-18T17:24:11.497Z,23.70
2022-08-18T17:27:37.607Z,23.70
2022-08-18T17:31:00.314Z,23.70
2022-08-18T17:34:34.987Z,23.70
2022-08-18T17:38:05.687Z,23.50
2022-08-18T17:41:29.810Z,23.40
2022-08-18T17:45:05.744Z,23.30
2022-08-18T17:48:32.943Z,23.10
2022-08-18T17:51:56.690Z,23.00
2022-08-18T17:55:28.937Z,23.00
2022-08-18T17:58:58.806Z,22.90
2022-08-18T18:02:30.487Z,22.80
2022-08-18T18:06:03.458Z,22.80
2022-08-18T18:09:26.139Z,22.80
2022-08-18T18:13:13.840Z,22.70
2022-08-18T18:16:36.317Z,22.70
2022-08-18T18:20:40.718Z,22.70
2022-08-18T18:24:06.256Z,22.70
2022-08-18T18:27:33.399Z,22.50
2022-08-18T18:31:17.714Z,22.40
2022-08-18T18:34:45.485Z,22.30
2022-08-18T18:38:26.285Z,22.20
2022-08-18T18:41:52.265Z,22.00
2022-08-18T18:45:34.948Z,21.80
2022-08-18T18:49:15.774Z,21.70
2022-08-18T18:52:41.331Z,21.70
2022-08-18T18:56:25.822Z,21.60
2022-08-18T19:00:13.405Z,21.40
2022-08-18T19:03:50.425Z,21.40
2022-08-18T19:07:24.646Z,21.40
2022-08-18T19:11:23.164Z,21.40
2022-08-18T19:15:00.022Z,21.40
2022-08-18T19:18:38.285Z,21.40
2022-08-18T19:22:19.017Z,21.40
2022-08-18T19:25:50.494Z,21.30
2022-08-18T19:29:23.209Z,21.20
2022-08-18T19:32:50.096Z,21.20
2022-08-18T19:36:39.096Z,21.20
2022-08-18T19:40:19.130Z,21.10
2022-08-18T19:43:51.910Z,21.10
2022-08-18T19:47:28.009Z,21.10
2022-08-18T19:51:00.321Z,21.20
2022-08-18T19:54:38.996Z,21.10
2022-08-18T19:58:17.305Z,21.10
2022-08-18T20:02:05.459Z,21.10
2022-08-18T20:05:39.426Z,21.10
2022-08-18T20:09:26.931Z,21.00
2022-08-18T20:13:10.292Z,21.00
2022-08-18T20:16:45.335Z,21.10
2022-08-18T20:20:15.091Z,21.00
2022-08-18T20:24:01.638Z,21.00
2022-08-18T20:27:35.217Z,21.00
2022-08-18T20:31:05.296Z,20.90
2022-08-18T20:34:33.599Z,20.90
2022-08-18T20:38:28.608Z,20.80
2022-08-18T20:41:50.905Z,20.90
2022-08-18T20:45:25.768Z,20.80
2022-08-18T20:49:16.796Z,20.80
2022-08-18T20:52:58.260Z,20.80
2022-08-18T20:56:43.437Z,20.70
2022-08-18T21:00:27.033Z,20.80
2022-08-18T21:03:49.847Z,21.00
2022-08-18T21:07:40.319Z,21.00
2022-08-18T21:11:29.797Z,21.00
2022-08-18T21:14:56.916Z,20.90
2022-08-18T21:18:21.977Z,20.90
2022-08-18T21:22:02.347Z,20.90
2022-08-18T21:25:24.778Z,21.00
2022-08-18T21:28:51.266Z,21.10
2022-08-18T21:32:23.910Z,21.20
2022-08-18T21:35:46.710Z,21.20
2022-08-18T21:39:16.123Z,21.30
2022-08-18T21:42:45.107Z,21.30
2022-08-18T21:46:09.686Z,21.30
2022-08-18T21:49:35.792Z,21.30
2022-08-18T21:53:01.928Z,21.30
2022-08-18T21:56:30.498Z,21.30
2022-08-18T22:00:38.192Z,21.40
2022-08-18T22:04:36.347Z,21.30
2022-08-18T22:07:58.953Z,21.30
2022-08-18T22:12:01.107Z,21.40
2022-08-18T22:15:27.788Z,21.30
2022-08-18T22:18:50.439Z,21.40
2022-08-18T22:22:31.617Z,21.40
2022-08-18T22:26:05.099Z,21.30
2022-08-18T22:29:35.522Z,21.30
2022-08-18T22:33:08.325Z,21.30
2022-08-18T22:36:36.605Z,21.30
2022-08-18T22:40:06.443Z,21.20
2022-08-18T22:43:29.677Z,21.30
2022-08-18T22:46:53.308Z,21.30
2022-08-18T22:50:17.193Z,21.20
2022-08-18T22:53:40.450Z,21.20
2022-08-18T22:57:06.566Z,21.10
2022-08-18T23:00:30.279Z,21.10
2022-08-18T23:03:55.681Z,21.10
2022-08-18T23:07:23.265Z,21.10
2022-08-18T23:10:46.264Z,21.10
2022-08-18T23:14:09.143Z,21.10
2022-08-18T23:17:31.912Z,21.30
2022-08-18T23:20:59.843Z,21.30
2022-08-18T23:24:22.799Z,21.30
2022-08-18T23:27:45.551Z,21.30
2022-08-18T23:31:07.817Z,21.30
2022-08-18T23:34:30.613Z,21.20
2022-08-18T23:37:55.183Z,21.10
2022-08-18T23:41:18.353Z,21.10
2022-08-18T23:44:43.686Z,21.00
2022-08-18T23:48:08.739Z,20.90
2022-08-18T23:51:40.986Z,20.90
2022-08-18T23:55:14.628Z,20.90
2022-08-18T23:58:39.146Z,20.80
